sensor_id;sensor_type;location;lat;lon;timestamp;temperature;humidity
23143;DHT22;11740;51.168;4.112;2023-02-25T00:01:11;3.60;1.00
23143;DHT22;11740;51.168;4.112;2023-02-25T00:03:40;3.60;1.00
23143;DHT22;11740;51.168;4.112;2023-02-25T00:06:08;3.60;1.00
23143;DHT22;11740;51.168;4.112;2023-02-25T00:08:41;3.60;1.00
23143;DHT22;11740;51.168;4.112;2023-02-25T00:11:09;3.60;1.00
23143;DHT22;11740;51.168;4.112;2023-02-25T00:13:38;3.60;1.00
23143;DHT22;11740;51.168;4.112;2023-02-25T00:16:06;3.60;1.00
23143;DHT22;11740;51.168;4.112;2023-02-25T00:18:34;3.50;1.00
23143;DHT22;11740;51.168;4.112;2023-02-25T00:21:05;3.60;1.00
23143;DHT22;11740;51.168;4.112;2023-02-25T00:23:32;3.50;1.00
23143;DHT22;11740;51.168;4.112;2023-02-25T00:26:00;3.50;1.00
23143;DHT22;11740;51.168;4.112;2023-02-25T00:28:34;3.50;1.00
23143;DHT22;11740;51.168;4.112;2023-02-25T00:31:13;3.40;1.00
23143;DHT22;11740;51.168;4.112;2023-02-25T00:33:41;3.40;1.00
23143;DHT22;11740;51.168;4.112;2023-02-25T00:36:09;3.40;1.00
23143;DHT22;11740;51.168;4.112;2023-02-25T00:38:39;3.40;1.00
23143;DHT22;11740;51.168;4.112;2023-02-25T00:41:06;3.40;1.00
23143;DHT22;11740;51.168;4.112;2023-02-25T00:43:46;3.40;1.00
23143;DHT22;11740;51.168;4.112;2023-02-25T00:46:20;3.40;1.00
23143;DHT22;11740;51.168;4.112;2023-02-25T00:48:47;3.40;1.00
23143;DHT22;11740;51.168;4.112;2023-02-25T00:51:20;3.40;1.00
23143;DHT22;11740;51.168;4.112;2023-02-25T00:53:48;3.40;1.00
23143;DHT22;11740;51.168;4.112;2023-02-25T00:56:16;3.40;1.00
23143;DHT22;11740;51.168;4.112;2023-02-25T00:58:43;3.30;1.00
23143;DHT22;11740;51.168;4.112;2023-02-25T01:03:55;3.30;1.00
23143;DHT22;11740;51.168;4.112;2023-02-25T01:06:24;3.30;1.00
23143;DHT22;11740;51.168;4.112;2023-02-25T01:08:51;3.30;1.00
23143;DHT22;11740;51.168;4.112;2023-02-25T01:11:19;3.20;1.00
23143;DHT22;11740;51.168;4.112;2023-02-25T01:13:55;3.20;1.00
23143;DHT22;11740;51.168;4.112;2023-02-25T01:16:27;3.20;1.00
23143;DHT22;11740;51.168;4.112;2023-02-25T01:18:56;3.10;1.00
23143;DHT22;11740;51.168;4.112;2023-02-25T01:21:26;3.10;1.00
23143;DHT22;11740;51.168;4.112;2023-02-25T01:23:56;3.10;1.00
23143;DHT22;11740;51.168;4.112;2023-02-25T01:26:29;3.10;1.00
23143;DHT22;11740;51.168;4.112;2023-02-25T01:28:58;3.10;1.00
23143;DHT22;11740;51.168;4.112;2023-02-25T01:31:25;3.00;1.00
23143;DHT22;11740;51.168;4.112;2023-02-25T01:33:59;3.00;1.00
23143;DHT22;11740;51.168;4.112;2023-02-25T01:36:28;3.00;1.00
23143;DHT22;11740;51.168;4.112;2023-02-25T01:38:55;3.00;1.00
23143;DHT22;11740;51.168;4.112;2023-02-25T01:41:23;3.00;1.00
23143;DHT22;11740;51.168;4.112;2023-02-25T01:46:52;3.00;1.00
23143;DHT22;11740;51.168;4.112;2023-02-25T01:49:27;2.90;1.00
23143;DHT22;11740;51.168;4.112;2023-02-25T01:52:02;2.90;1.00
23143;DHT22;11740;51.168;4.112;2023-02-25T01:54:49;2.90;1.00
23143;DHT22;11740;51.168;4.112;2023-02-25T01:57:18;3.00;1.00
23143;DHT22;11740;51.168;4.112;2023-02-25T01:59:46;3.00;24.60
23143;DHT22;11740;51.168;4.112;2023-02-25T02:02:14;3.00;84.20
23143;DHT22;11740;51.168;4.112;2023-02-25T02:04:43;3.00;99.90
23143;DHT22;11740;51.168;4.112;2023-02-25T02:07:10;3.00;80.60
23143;DHT22;11740;51.168;4.112;2023-02-25T02:09:39;3.00;52.70
23143;DHT22;11740;51.168;4.112;2023-02-25T02:12:25;3.00;44.10
23143;DHT22;11740;51.168;4.112;2023-02-25T02:14:55;3.00;30.50
23143;DHT22;11740;51.168;4.112;2023-02-25T02:28:41;3.00;19.30
23143;DHT22;11740;51.168;4.112;2023-02-25T02:45:02;3.00;95.10
23143;DHT22;11740;51.168;4.112;2023-02-25T02:47:37;3.00;94.80
23143;DHT22;11740;51.168;4.112;2023-02-25T02:50:06;3.00;99.90
23143;DHT22;11740;51.168;4.112;2023-02-25T02:52:37;3.00;99.90
23143;DHT22;11740;51.168;4.112;2023-02-25T02:55:12;3.00;99.90
23143;DHT22;11740;51.168;4.112;2023-02-25T02:57:52;3.00;99.90
23143;DHT22;11740;51.168;4.112;2023-02-25T03:00:23;2.90;67.50
23143;DHT22;11740;51.168;4.112;2023-02-25T03:02:51;2.90;2.80
23143;DHT22;11740;51.168;4.112;2023-02-25T03:05:24;2.90;1.00
23143;DHT22;11740;51.168;4.112;2023-02-25T03:08:02;2.90;1.00
23143;DHT22;11740;51.168;4.112;2023-02-25T03:10:36;2.90;1.00
23143;DHT22;11740;51.168;4.112;2023-02-25T03:13:03;2.90;1.00
23143;DHT22;11740;51.168;4.112;2023-02-25T03:15:30;2.90;1.00
23143;DHT22;11740;51.168;4.112;2023-02-25T03:17:59;2.90;1.00
23143;DHT22;11740;51.168;4.112;2023-02-25T03:20:31;2.90;29.40
23143;DHT22;11740;51.168;4.112;2023-02-25T03:23:04;2.90;69.90
23143;DHT22;11740;51.168;4.112;2023-02-25T03:25:47;3.00;99.90
23143;DHT22;11740;51.168;4.112;2023-02-25T03:28:21;3.00;99.90
23143;DHT22;11740;51.168;4.112;2023-02-25T03:30:56;3.00;99.90
23143;DHT22;11740;51.168;4.112;2023-02-25T03:36:26;3.00;99.90
23143;DHT22;11740;51.168;4.112;2023-02-25T03:38:55;3.00;99.90
23143;DHT22;11740;51.168;4.112;2023-02-25T03:41:26;3.00;99.90
23143;DHT22;11740;51.168;4.112;2023-02-25T03:43:56;3.00;99.90
23143;DHT22;11740;51.168;4.112;2023-02-25T03:46:24;3.00;99.90
23143;DHT22;11740;51.168;4.112;2023-02-25T03:48:53;3.00;99.90
23143;DHT22;11740;51.168;4.112;2023-02-25T03:51:22;3.00;99.90
23143;DHT22;11740;51.168;4.112;2023-02-25T03:53:53;2.90;99.90
23143;DHT22;11740;51.168;4.112;2023-02-25T03:56:21;3.00;91.70
23143;DHT22;11740;51.168;4.112;2023-02-25T03:58:48;2.90;99.90
23143;DHT22;11740;51.168;4.112;2023-02-25T04:01:25;2.90;99.90
23143;DHT22;11740;51.168;4.112;2023-02-25T04:03:53;3.00;99.90
23143;DHT22;11740;51.168;4.112;2023-02-25T04:06:23;2.90;99.90
23143;DHT22;11740;51.168;4.112;2023-02-25T04:08:51;2.90;99.90
23143;DHT22;11740;51.168;4.112;2023-02-25T04:11:18;3.00;91.60
23143;DHT22;11740;51.168;4.112;2023-02-25T04:13:45;3.00;1.00
23143;DHT22;11740;51.168;4.112;2023-02-25T04:16:11;3.00;1.00
23143;DHT22;11740;51.168;4.112;2023-02-25T04:18:39;3.00;1.00
23143;DHT22;11740;51.168;4.112;2023-02-25T04:21:06;3.00;1.00
23143;DHT22;11740;51.168;4.112;2023-02-25T04:23:34;3.00;1.00
23143;DHT22;11740;51.168;4.112;2023-02-25T04:26:01;3.00;1.00
23143;DHT22;11740;51.168;4.112;2023-02-25T04:28:28;2.90;1.00
23143;DHT22;11740;51.168;4.112;2023-02-25T04:30:55;3.00;1.00
23143;DHT22;11740;51.168;4.112;2023-02-25T04:33:22;3.00;1.00
23143;DHT22;11740;51.168;4.112;2023-02-25T04:35:49;3.00;1.00
23143;DHT22;11740;51.168;4.112;2023-02-25T04:38:17;3.00;1.00
23143;DHT22;11740;51.168;4.112;2023-02-25T04:40:43;2.90;1.00
23143;DHT22;11740;51.168;4.112;2023-02-25T04:43:10;2.90;99.90
23143;DHT22;11740;51.168;4.112;2023-02-25T04:45:37;2.90;99.90
23143;DHT22;11740;51.168;4.112;2023-02-25T04:48:04;2.90;99.90
23143;DHT22;11740;51.168;4.112;2023-02-25T04:50:31;2.90;99.90
23143;DHT22;11740;51.168;4.112;2023-02-25T04:52:59;2.80;99.90
23143;DHT22;11740;51.168;4.112;2023-02-25T04:55:27;2.90;99.90
23143;DHT22;11740;51.168;4.112;2023-02-25T04:57:55;2.90;99.90
23143;DHT22;11740;51.168;4.112;2023-02-25T05:00:22;2.90;99.90
23143;DHT22;11740;51.168;4.112;2023-02-25T05:02:50;2.90;99.90
23143;DHT22;11740;51.168;4.112;2023-02-25T05:05:17;2.90;99.90
23143;DHT22;11740;51.168;4.112;2023-02-25T05:07:44;2.90;99.90
23143;DHT22;11740;51.168;4.112;2023-02-25T05:10:12;2.90;1.00
23143;DHT22;11740;51.168;4.112;2023-02-25T05:12:40;2.90;1.00
23143;DHT22;11740;51.168;4.112;2023-02-25T05:15:07;2.90;99.90
23143;DHT22;11740;51.168;4.112;2023-02-25T05:17:34;2.90;99.90
23143;DHT22;11740;51.168;4.112;2023-02-25T05:20:02;2.90;1.00
23143;DHT22;11740;51.168;4.112;2023-02-25T05:22:33;2.90;1.00
23143;DHT22;11740;51.168;4.112;2023-02-25T05:25:00;2.90;1.00
23143;DHT22;11740;51.168;4.112;2023-02-25T05:27:27;2.90;1.00
23143;DHT22;11740;51.168;4.112;2023-02-25T05:29:53;2.90;1.00
23143;DHT22;11740;51.168;4.112;2023-02-25T05:32:21;2.90;1.00
23143;DHT22;11740;51.168;4.112;2023-02-25T05:34:48;2.90;1.00
23143;DHT22;11740;51.168;4.112;2023-02-25T05:37:15;2.90;1.00
23143;DHT22;11740;51.168;4.112;2023-02-25T05:39:42;2.90;1.00
23143;DHT22;11740;51.168;4.112;2023-02-25T05:42:09;2.90;1.00
23143;DHT22;11740;51.168;4.112;2023-02-25T05:44:37;2.90;1.00
23143;DHT22;11740;51.168;4.112;2023-02-25T05:47:03;2.90;1.00
23143;DHT22;11740;51.168;4.112;2023-02-25T05:49:30;2.90;1.00
23143;DHT22;11740;51.168;4.112;2023-02-25T05:51:57;2.90;1.00
23143;DHT22;11740;51.168;4.112;2023-02-25T05:54:24;2.90;1.00
23143;DHT22;11740;51.168;4.112;2023-02-25T05:56:51;2.90;1.00
23143;DHT22;11740;51.168;4.112;2023-02-25T05:59:18;3.00;1.10
23143;DHT22;11740;51.168;4.112;2023-02-25T06:01:45;2.90;99.90
23143;DHT22;11740;51.168;4.112;2023-02-25T06:04:12;2.90;99.90
23143;DHT22;11740;51.168;4.112;2023-02-25T06:06:39;2.90;24.80
23143;DHT22;11740;51.168;4.112;2023-02-25T06:09:07;3.00;99.90
23143;DHT22;11740;51.168;4.112;2023-02-25T06:11:35;3.00;99.90
23143;DHT22;11740;51.168;4.112;2023-02-25T06:14:02;3.00;73.60
23143;DHT22;11740;51.168;4.112;2023-02-25T06:16:29;3.00;31.30
23143;DHT22;11740;51.168;4.112;2023-02-25T06:18:58;3.00;22.20
23143;DHT22;11740;51.168;4.112;2023-02-25T06:21:26;2.90;63.60
23143;DHT22;11740;51.168;4.112;2023-02-25T06:23:53;2.90;99.90
23143;DHT22;11740;51.168;4.112;2023-02-25T06:26:20;2.90;79.70
23143;DHT22;11740;51.168;4.112;2023-02-25T06:28:48;3.00;99.90
23143;DHT22;11740;51.168;4.112;2023-02-25T06:31:16;3.00;99.90
23143;DHT22;11740;51.168;4.112;2023-02-25T06:33:44;3.00;99.90
23143;DHT22;11740;51.168;4.112;2023-02-25T06:36:12;3.00;99.90
23143;DHT22;11740;51.168;4.112;2023-02-25T06:38:39;3.00;99.90
23143;DHT22;11740;51.168;4.112;2023-02-25T06:41:10;3.00;99.90
23143;DHT22;11740;51.168;4.112;2023-02-25T06:43:41;3.00;99.90
23143;DHT22;11740;51.168;4.112;2023-02-25T06:46:08;3.00;99.90
23143;DHT22;11740;51.168;4.112;2023-02-25T06:48:36;3.00;99.90
23143;DHT22;11740;51.168;4.112;2023-02-25T06:51:04;3.10;99.90
23143;DHT22;11740;51.168;4.112;2023-02-25T06:53:38;3.10;99.90
23143;DHT22;11740;51.168;4.112;2023-02-25T06:56:06;3.10;99.90
23143;DHT22;11740;51.168;4.112;2023-02-25T06:58:34;3.10;99.90
23143;DHT22;11740;51.168;4.112;2023-02-25T07:01:04;3.10;99.90
23143;DHT22;11740;51.168;4.112;2023-02-25T07:03:34;3.10;99.90
23143;DHT22;11740;51.168;4.112;2023-02-25T07:06:01;3.10;99.90
23143;DHT22;11740;51.168;4.112;2023-02-25T07:08:28;3.10;99.90
23143;DHT22;11740;51.168;4.112;2023-02-25T07:11:08;3.10;99.90
23143;DHT22;11740;51.168;4.112;2023-02-25T07:13:52;3.10;99.90
23143;DHT22;11740;51.168;4.112;2023-02-25T07:16:19;3.10;99.90
23143;DHT22;11740;51.168;4.112;2023-02-25T07:18:46;3.10;99.90
23143;DHT22;11740;51.168;4.112;2023-02-25T07:21:13;3.10;99.90
23143;DHT22;11740;51.168;4.112;2023-02-25T07:23:41;3.10;99.90
23143;DHT22;11740;51.168;4.112;2023-02-25T07:26:09;3.10;99.90
23143;DHT22;11740;51.168;4.112;2023-02-25T07:28:37;3.10;99.90
23143;DHT22;11740;51.168;4.112;2023-02-25T07:31:12;3.10;99.90
23143;DHT22;11740;51.168;4.112;2023-02-25T07:33:40;3.10;99.90
23143;DHT22;11740;51.168;4.112;2023-02-25T07:36:08;3.00;99.90
23143;DHT22;11740;51.168;4.112;2023-02-25T07:38:36;3.00;99.90
23143;DHT22;11740;51.168;4.112;2023-02-25T07:41:04;3.10;99.90
23143;DHT22;11740;51.168;4.112;2023-02-25T07:43:31;3.10;99.90
23143;DHT22;11740;51.168;4.112;2023-02-25T07:45:58;3.10;99.90
23143;DHT22;11740;51.168;4.112;2023-02-25T07:48:25;3.20;99.90
23143;DHT22;11740;51.168;4.112;2023-02-25T07:50:53;3.20;99.90
23143;DHT22;11740;51.168;4.112;2023-02-25T07:53:21;3.20;99.90
23143;DHT22;11740;51.168;4.112;2023-02-25T07:55:48;3.30;99.90
23143;DHT22;11740;51.168;4.112;2023-02-25T07:58:16;3.30;99.90
23143;DHT22;11740;51.168;4.112;2023-02-25T08:00:43;3.30;99.90
23143;DHT22;11740;51.168;4.112;2023-02-25T08:03:11;3.30;99.90
23143;DHT22;11740;51.168;4.112;2023-02-25T08:05:38;3.30;99.90
23143;DHT22;11740;51.168;4.112;2023-02-25T08:08:05;3.30;99.90
23143;DHT22;11740;51.168;4.112;2023-02-25T08:10:32;3.40;99.90
23143;DHT22;11740;51.168;4.112;2023-02-25T08:12:59;3.40;89.00
23143;DHT22;11740;51.168;4.112;2023-02-25T08:15:26;3.40;28.70
23143;DHT22;11740;51.168;4.112;2023-02-25T08:17:53;3.40;33.70
23143;DHT22;11740;51.168;4.112;2023-02-25T08:20:21;3.40;49.40
23143;DHT22;11740;51.168;4.112;2023-02-25T08:22:48;3.50;19.30
23143;DHT22;11740;51.168;4.112;2023-02-25T08:25:15;3.50;3.60
23143;DHT22;11740;51.168;4.112;2023-02-25T08:27:42;3.50;1.00
23143;DHT22;11740;51.168;4.112;2023-02-25T08:30:10;3.50;8.60
23143;DHT22;11740;51.168;4.112;2023-02-25T08:32:37;3.60;45.60
23143;DHT22;11740;51.168;4.112;2023-02-25T08:35:05;3.60;99.00
23143;DHT22;11740;51.168;4.112;2023-02-25T08:37:32;3.60;24.70
23143;DHT22;11740;51.168;4.112;2023-02-25T08:39:59;3.60;77.20
23143;DHT22;11740;51.168;4.112;2023-02-25T08:42:26;3.70;72.40
23143;DHT22;11740;51.168;4.112;2023-02-25T08:44:52;3.70;99.90
23143;DHT22;11740;51.168;4.112;2023-02-25T08:47:19;3.70;99.90
23143;DHT22;11740;51.168;4.112;2023-02-25T08:49:46;3.70;99.90
23143;DHT22;11740;51.168;4.112;2023-02-25T08:52:13;3.70;99.90
23143;DHT22;11740;51.168;4.112;2023-02-25T08:54:40;3.70;99.90
23143;DHT22;11740;51.168;4.112;2023-02-25T08:57:07;3.70;99.90
23143;DHT22;11740;51.168;4.112;2023-02-25T08:59:34;3.70;99.90
23143;DHT22;11740;51.168;4.112;2023-02-25T09:02:02;3.70;99.90
23143;DHT22;11740;51.168;4.112;2023-02-25T09:04:32;3.80;1.00
23143;DHT22;11740;51.168;4.112;2023-02-25T09:06:59;3.80;99.90
23143;DHT22;11740;51.168;4.112;2023-02-25T09:09:27;3.90;1.00
23143;DHT22;11740;51.168;4.112;2023-02-25T09:11:54;3.90;1.00
23143;DHT22;11740;51.168;4.112;2023-02-25T09:14:21;3.90;99.90
23143;DHT22;11740;51.168;4.112;2023-02-25T09:16:48;4.00;1.00
23143;DHT22;11740;51.168;4.112;2023-02-25T09:19:15;4.00;99.90
23143;DHT22;11740;51.168;4.112;2023-02-25T09:21:44;4.10;1.00
23143;DHT22;11740;51.168;4.112;2023-02-25T09:24:14;4.10;99.90
23143;DHT22;11740;51.168;4.112;2023-02-25T09:26:41;4.10;99.90
23143;DHT22;11740;51.168;4.112;2023-02-25T09:29:08;4.20;1.00
23143;DHT22;11740;51.168;4.112;2023-02-25T09:31:35;4.20;1.00
23143;DHT22;11740;51.168;4.112;2023-02-25T09:34:04;4.20;99.90
23143;DHT22;11740;51.168;4.112;2023-02-25T09:36:33;4.30;99.90
23143;DHT22;11740;51.168;4.112;2023-02-25T09:39:00;4.30;99.90
23143;DHT22;11740;51.168;4.112;2023-02-25T09:44:35;4.50;1.00
23143;DHT22;11740;51.168;4.112;2023-02-25T09:47:25;4.50;1.00
23143;DHT22;11740;51.168;4.112;2023-02-25T09:49:58;4.60;99.90
23143;DHT22;11740;51.168;4.112;2023-02-25T09:52:28;4.70;99.90
23143;DHT22;11740;51.168;4.112;2023-02-25T09:57:33;4.90;1.00
23143;DHT22;11740;51.168;4.112;2023-02-25T10:00:02;5.00;99.90
23143;DHT22;11740;51.168;4.112;2023-02-25T10:02:35;5.00;99.90
23143;DHT22;11740;51.168;4.112;2023-02-25T10:05:21;5.10;99.90
23143;DHT22;11740;51.168;4.112;2023-02-25T10:08:06;5.10;99.90
23143;DHT22;11740;51.168;4.112;2023-02-25T10:21:56;5.10;99.90
23143;DHT22;11740;51.168;4.112;2023-02-25T10:24:38;5.10;99.90
23143;DHT22;11740;51.168;4.112;2023-02-25T10:27:08;5.10;99.90
23143;DHT22;11740;51.168;4.112;2023-02-25T10:29:43;5.20;99.90
23143;DHT22;11740;51.168;4.112;2023-02-25T10:32:19;5.20;99.90
23143;DHT22;11740;51.168;4.112;2023-02-25T10:34:47;5.30;99.90
23143;DHT22;11740;51.168;4.112;2023-02-25T10:37:18;5.40;99.90
23143;DHT22;11740;51.168;4.112;2023-02-25T10:39:47;5.50;99.90
23143;DHT22;11740;51.168;4.112;2023-02-25T10:42:16;5.50;33.50
23143;DHT22;11740;51.168;4.112;2023-02-25T10:44:43;5.60;1.00
23143;DHT22;11740;51.168;4.112;2023-02-25T10:47:12;5.60;1.00
23143;DHT22;11740;51.168;4.112;2023-02-25T10:49:55;5.70;1.00
23143;DHT22;11740;51.168;4.112;2023-02-25T10:52:39;5.70;99.90
23143;DHT22;11740;51.168;4.112;2023-02-25T10:55:27;5.90;99.90
23143;DHT22;11740;51.168;4.112;2023-02-25T10:58:04;6.00;28.90
23143;DHT22;11740;51.168;4.112;2023-02-25T11:00:32;6.10;1.00
23143;DHT22;11740;51.168;4.112;2023-02-25T11:03:02;6.20;99.90
23143;DHT22;11740;51.168;4.112;2023-02-25T11:05:34;6.20;99.90
23143;DHT22;11740;51.168;4.112;2023-02-25T11:08:29;6.30;99.90
23143;DHT22;11740;51.168;4.112;2023-02-25T11:11:02;6.20;99.90
23143;DHT22;11740;51.168;4.112;2023-02-25T11:13:40;6.20;1.00
23143;DHT22;11740;51.168;4.112;2023-02-25T11:16:08;6.10;1.00
23143;DHT22;11740;51.168;4.112;2023-02-25T11:18:38;6.10;1.00
23143;DHT22;11740;51.168;4.112;2023-02-25T11:21:10;6.10;1.00
23143;DHT22;11740;51.168;4.112;2023-02-25T11:26:15;6.10;99.90
23143;DHT22;11740;51.168;4.112;2023-02-25T11:28:52;6.20;99.90
23143;DHT22;11740;51.168;4.112;2023-02-25T11:31:22;6.30;99.90
23143;DHT22;11740;51.168;4.112;2023-02-25T11:33:57;6.30;1.00
23143;DHT22;11740;51.168;4.112;2023-02-25T11:36:30;6.40;1.00
23143;DHT22;11740;51.168;4.112;2023-02-25T11:39:06;6.50;18.50
23143;DHT22;11740;51.168;4.112;2023-02-25T11:41:33;6.60;1.00
23143;DHT22;11740;51.168;4.112;2023-02-25T11:44:10;6.70;1.00
23143;DHT22;11740;51.168;4.112;2023-02-25T11:47:27;6.80;1.00
23143;DHT22;11740;51.168;4.112;2023-02-25T12:01:15;6.50;1.00
23143;DHT22;11740;51.168;4.112;2023-02-25T12:34:45;7.40;52.50
23143;DHT22;11740;51.168;4.112;2023-02-25T12:40:39;7.30;75.10
23143;DHT22;11740;51.168;4.112;2023-02-25T13:00:26;7.90;99.90
23143;DHT22;11740;51.168;4.112;2023-02-25T13:08:32;7.80;99.90
23143;DHT22;11740;51.168;4.112;2023-02-25T13:14:30;7.20;99.90
23143;DHT22;11740;51.168;4.112;2023-02-25T13:17:19;7.20;1.00
23143;DHT22;11740;51.168;4.112;2023-02-25T13:25:52;7.40;1.00
23143;DHT22;11740;51.168;4.112;2023-02-25T13:55:26;8.60;1.00
23143;DHT22;11740;51.168;4.112;2023-02-25T14:03:45;9.00;1.00
23143;DHT22;11740;51.168;4.112;2023-02-25T14:09:07;8.60;1.00
23143;DHT22;11740;51.168;4.112;2023-02-25T14:11:42;8.50;1.00
23143;DHT22;11740;51.168;4.112;2023-02-25T14:17:18;8.30;10.00
23143;DHT22;11740;51.168;4.112;2023-02-25T14:20:04;8.30;27.70
23143;DHT22;11740;51.168;4.112;2023-02-25T14:23:29;8.30;99.90
23143;DHT22;11740;51.168;4.112;2023-02-25T14:38:28;9.10;1.00
23143;DHT22;11740;51.168;4.112;2023-02-25T14:43:40;9.50;1.00
23143;DHT22;11740;51.168;4.112;2023-02-25T14:57:05;10.10;99.90
23143;DHT22;11740;51.168;4.112;2023-02-25T14:59:53;10.10;99.90
23143;DHT22;11740;51.168;4.112;2023-02-25T15:22:28;11.20;99.90
23143;DHT22;11740;51.168;4.112;2023-02-25T15:43:56;11.80;99.90
23143;DHT22;11740;51.168;4.112;2023-02-25T15:49:15;11.60;99.90
23143;DHT22;11740;51.168;4.112;2023-02-25T15:51:44;12.10;99.90
23143;DHT22;11740;51.168;4.112;2023-02-25T15:56:55;12.50;99.90
23143;DHT22;11740;51.168;4.112;2023-02-25T15:59:40;12.40;99.90
23143;DHT22;11740;51.168;4.112;2023-02-25T16:04:59;12.40;99.90
23143;DHT22;11740;51.168;4.112;2023-02-25T16:07:29;12.80;99.90
23143;DHT22;11740;51.168;4.112;2023-02-25T16:09:59;12.90;99.90
23143;DHT22;11740;51.168;4.112;2023-02-25T16:12:31;12.90;99.90
23143;DHT22;11740;51.168;4.112;2023-02-25T16:14:58;13.00;99.90
23143;DHT22;11740;51.168;4.112;2023-02-25T16:17:30;12.90;99.90
23143;DHT22;11740;51.168;4.112;2023-02-25T16:20:37;12.00;99.90
23143;DHT22;11740;51.168;4.112;2023-02-25T16:22:57;11.50;99.90
23143;DHT22;11740;51.168;4.112;2023-02-25T16:31:49;10.90;99.90
23143;DHT22;11740;51.168;4.112;2023-02-25T16:34:44;10.80;99.90
23143;DHT22;11740;51.168;4.112;2023-02-25T16:37:26;10.90;99.90
23143;DHT22;11740;51.168;4.112;2023-02-25T16:39:57;10.80;99.90
23143;DHT22;11740;51.168;4.112;2023-02-25T16:42:24;10.90;99.90
23143;DHT22;11740;51.168;4.112;2023-02-25T16:44:56;10.80;99.90
23143;DHT22;11740;51.168;4.112;2023-02-25T16:47:28;10.70;99.90
23143;DHT22;11740;51.168;4.112;2023-02-25T16:50:00;10.70;99.90
23143;DHT22;11740;51.168;4.112;2023-02-25T16:52:36;10.60;99.90
23143;DHT22;11740;51.168;4.112;2023-02-25T16:55:04;10.40;99.90
23143;DHT22;11740;51.168;4.112;2023-02-25T16:57:38;10.40;99.90
23143;DHT22;11740;51.168;4.112;2023-02-25T17:00:17;10.30;99.90
23143;DHT22;11740;51.168;4.112;2023-02-25T17:02:46;10.00;99.90
23143;DHT22;11740;51.168;4.112;2023-02-25T17:07:57;10.00;99.90
23143;DHT22;11740;51.168;4.112;2023-02-25T17:10:28;9.80;99.90
23143;DHT22;11740;51.168;4.112;2023-02-25T17:12:56;9.70;99.90
23143;DHT22;11740;51.168;4.112;2023-02-25T17:15:29;9.60;99.90
23143;DHT22;11740;51.168;4.112;2023-02-25T17:20:27;9.30;99.90
23143;DHT22;11740;51.168;4.112;2023-02-25T17:22:55;9.30;99.90
23143;DHT22;11740;51.168;4.112;2023-02-25T17:25:37;9.20;99.90
23143;DHT22;11740;51.168;4.112;2023-02-25T17:28:06;9.20;99.90
23143;DHT22;11740;51.168;4.112;2023-02-25T17:30:41;9.10;99.90
23143;DHT22;11740;51.168;4.112;2023-02-25T17:33:20;9.00;99.90
23143;DHT22;11740;51.168;4.112;2023-02-25T17:36:06;8.70;99.90
23143;DHT22;11740;51.168;4.112;2023-02-25T17:38:34;8.70;99.90
23143;DHT22;11740;51.168;4.112;2023-02-25T17:41:04;8.70;99.90
23143;DHT22;11740;51.168;4.112;2023-02-25T17:43:32;8.70;99.90
23143;DHT22;11740;51.168;4.112;2023-02-25T17:46:02;8.60;99.90
23143;DHT22;11740;51.168;4.112;2023-02-25T17:48:38;8.60;99.90
23143;DHT22;11740;51.168;4.112;2023-02-25T17:51:08;8.50;99.90
23143;DHT22;11740;51.168;4.112;2023-02-25T17:53:37;8.40;99.90
23143;DHT22;11740;51.168;4.112;2023-02-25T17:56:11;8.30;99.90
23143;DHT22;11740;51.168;4.112;2023-02-25T17:58:57;8.00;99.90
23143;DHT22;11740;51.168;4.112;2023-02-25T18:04:20;7.70;98.00
23143;DHT22;11740;51.168;4.112;2023-02-25T18:06:51;7.60;86.10
23143;DHT22;11740;51.168;4.112;2023-02-25T18:12:05;7.70;99.90
23143;DHT22;11740;51.168;4.112;2023-02-25T18:14:37;7.60;99.90
23143;DHT22;11740;51.168;4.112;2023-02-25T18:17:13;7.50;99.90
23143;DHT22;11740;51.168;4.112;2023-02-25T18:19:42;7.40;99.90
23143;DHT22;11740;51.168;4.112;2023-02-25T18:22:25;7.40;99.90
23143;DHT22;11740;51.168;4.112;2023-02-25T18:24:57;7.40;99.90
23143;DHT22;11740;51.168;4.112;2023-02-25T18:27:32;7.50;99.90
23143;DHT22;11740;51.168;4.112;2023-02-25T18:30:18;7.40;99.90
23143;DHT22;11740;51.168;4.112;2023-02-25T18:32:47;7.20;99.90
23143;DHT22;11740;51.168;4.112;2023-02-25T18:35:14;7.10;98.10
23143;DHT22;11740;51.168;4.112;2023-02-25T18:37:42;7.00;96.90
23143;DHT22;11740;51.168;4.112;2023-02-25T18:40:15;7.00;99.90
23143;DHT22;11740;51.168;4.112;2023-02-25T18:42:45;6.80;93.10
23143;DHT22;11740;51.168;4.112;2023-02-25T18:45:16;6.80;93.50
23143;DHT22;11740;51.168;4.112;2023-02-25T18:47:45;6.70;90.90
23143;DHT22;11740;51.168;4.112;2023-02-25T18:50:12;6.60;92.10
23143;DHT22;11740;51.168;4.112;2023-02-25T18:52:40;6.70;99.90
23143;DHT22;11740;51.168;4.112;2023-02-25T18:55:07;6.70;99.20
23143;DHT22;11740;51.168;4.112;2023-02-25T18:57:37;6.70;97.10
23143;DHT22;11740;51.168;4.112;2023-02-25T19:00:04;6.50;95.70
23143;DHT22;11740;51.168;4.112;2023-02-25T19:02:32;6.40;97.30
23143;DHT22;11740;51.168;4.112;2023-02-25T19:05:01;6.40;99.90
23143;DHT22;11740;51.168;4.112;2023-02-25T19:07:29;6.40;99.90
23143;DHT22;11740;51.168;4.112;2023-02-25T19:09:57;6.30;99.90
23143;DHT22;11740;51.168;4.112;2023-02-25T19:12:24;6.30;99.90
23143;DHT22;11740;51.168;4.112;2023-02-25T19:14:54;6.40;99.90
23143;DHT22;11740;51.168;4.112;2023-02-25T19:17:23;6.30;99.90
23143;DHT22;11740;51.168;4.112;2023-02-25T19:19:50;6.10;99.90
23143;DHT22;11740;51.168;4.112;2023-02-25T19:22:17;6.00;99.90
23143;DHT22;11740;51.168;4.112;2023-02-25T19:24:44;6.00;99.90
23143;DHT22;11740;51.168;4.112;2023-02-25T19:27:18;6.00;99.90
23143;DHT22;11740;51.168;4.112;2023-02-25T19:29:51;6.10;99.90
23143;DHT22;11740;51.168;4.112;2023-02-25T19:32:19;6.10;99.90
23143;DHT22;11740;51.168;4.112;2023-02-25T19:34:47;6.00;99.90
23143;DHT22;11740;51.168;4.112;2023-02-25T19:37:14;6.00;99.90
23143;DHT22;11740;51.168;4.112;2023-02-25T19:39:43;6.00;99.90
23143;DHT22;11740;51.168;4.112;2023-02-25T19:42:10;6.00;99.90
23143;DHT22;11740;51.168;4.112;2023-02-25T19:44:37;5.90;99.90
23143;DHT22;11740;51.168;4.112;2023-02-25T19:47:04;5.80;99.90
23143;DHT22;11740;51.168;4.112;2023-02-25T19:49:31;5.80;99.90
23143;DHT22;11740;51.168;4.112;2023-02-25T19:51:59;5.70;99.90
23143;DHT22;11740;51.168;4.112;2023-02-25T19:54:26;5.60;99.90
23143;DHT22;11740;51.168;4.112;2023-02-25T19:56:53;5.50;99.90
23143;DHT22;11740;51.168;4.112;2023-02-25T19:59:20;5.40;99.90
23143;DHT22;11740;51.168;4.112;2023-02-25T20:01:47;5.30;99.90
23143;DHT22;11740;51.168;4.112;2023-02-25T20:04:15;5.30;99.90
23143;DHT22;11740;51.168;4.112;2023-02-25T20:06:42;5.20;99.90
23143;DHT22;11740;51.168;4.112;2023-02-25T20:09:09;5.30;99.90
23143;DHT22;11740;51.168;4.112;2023-02-25T20:11:35;5.20;99.90
23143;DHT22;11740;51.168;4.112;2023-02-25T20:14:03;5.10;99.90
23143;DHT22;11740;51.168;4.112;2023-02-25T20:16:30;5.00;99.90
23143;DHT22;11740;51.168;4.112;2023-02-25T20:18:58;5.00;99.90
23143;DHT22;11740;51.168;4.112;2023-02-25T20:21:26;5.00;99.90
23143;DHT22;11740;51.168;4.112;2023-02-25T20:23:55;5.10;99.90
23143;DHT22;11740;51.168;4.112;2023-02-25T20:26:23;5.00;99.90
23143;DHT22;11740;51.168;4.112;2023-02-25T20:28:51;4.90;99.90
23143;DHT22;11740;51.168;4.112;2023-02-25T20:31:19;4.90;99.90